createdAt,value
2023-02-03T00:03:55.637Z,8.80
2023-02-03T00:09:00.829Z,9.70
2023-02-03T00:14:05.431Z,9.40
2023-02-03T00:19:08.173Z,5.10
2023-02-03T00:24:11.011Z,5.00
2023-02-03T00:29:14.830Z,4.10
2023-02-03T00:34:17.952Z,3.10
2023-02-03T00:44:23.541Z,3.00
2023-02-03T00:49:26.444Z,4.10
2023-02-03T00:54:29.250Z,2.90
2023-02-03T00:59:32.052Z,3.30
2023-02-03T01:04:34.848Z,4.40
2023-02-03T01:09:38.063Z,4.30
2023-02-03T01:14:40.890Z,2.80
2023-02-03T01:19:43.649Z,3.20
2023-02-03T01:24:46.418Z,3.80
2023-02-03T01:29:49.257Z,3.30
2023-02-03T01:34:52.065Z,4.10
2023-02-03T01:39:54.896Z,4.80
2023-02-03T01:44:58.689Z,5.70
2023-02-03T01:50:25.353Z,4.80
2023-02-03T01:55:34.988Z,5.00
2023-02-03T02:00:37.980Z,4.60
2023-02-03T02:05:51.071Z,6.30
2023-02-03T02:10:54.511Z,5.50
2023-02-03T02:16:15.867Z,6.00
2023-02-03T02:21:21.814Z,4.70
2023-02-03T02:26:27.595Z,7.10
2023-02-03T02:32:06.306Z,5.60
2023-02-03T02:37:26.642Z,5.70
2023-02-03T02:42:58.084Z,4.80
2023-02-03T02:48:17.694Z,5.40
2023-02-03T02:53:25.009Z,8.40
2023-02-03T02:58:30.115Z,8.30
2023-02-03T03:03:32.941Z,7.40
2023-02-03T03:08:42.569Z,6.70
2023-02-03T03:13:49.999Z,9.60
2023-02-03T03:19:02.818Z,12.60
2023-02-03T03:24:10.336Z,10.50
2023-02-03T03:29:18.914Z,10.20
2023-02-03T03:34:21.898Z,12.50
2023-02-03T03:39:34.959Z,16.00
2023-02-03T03:44:43.284Z,12.10
2023-02-03T03:49:48.306Z,8.70
2023-02-03T03:54:53.900Z,10.20
2023-02-03T03:59:57.185Z,12.80
2023-02-03T04:05:02.814Z,9.10
2023-02-03T04:10:12.740Z,7.10
2023-02-03T04:15:15.745Z,8.00
2023-02-03T04:25:21.984Z,7.70
2023-02-03T04:30:24.877Z,9.40
2023-02-03T04:40:30.712Z,12.00
2023-02-03T04:45:33.631Z,18.30
2023-02-03T04:55:39.387Z,10.10
2023-02-03T05:00:42.196Z,10.10
2023-02-03T05:05:45.085Z,16.20
2023-02-03T05:10:47.974Z,11.50
2023-02-03T05:15:50.763Z,11.80
2023-02-03T05:20:53.608Z,8.80
2023-02-03T05:25:56.350Z,15.30
2023-02-03T05:31:00.165Z,9.40
2023-02-03T05:36:03.195Z,8.70
2023-02-03T05:46:27.030Z,14.20
2023-02-03T05:51:29.856Z,17.20
2023-02-03T05:56:32.762Z,16.10
2023-02-03T06:01:36.058Z,14.10
2023-02-03T06:06:38.801Z,12.30
2023-02-03T06:11:42.835Z,12.00
2023-02-03T06:16:45.662Z,23.80
2023-02-03T06:21:48.505Z,13.70
2023-02-03T06:26:51.303Z,12.40
2023-02-03T06:31:54.187Z,10.50
2023-02-03T06:36:57.069Z,9.20
2023-02-03T06:42:00.217Z,12.50
2023-02-03T06:47:03.213Z,8.40
2023-02-03T06:52:06.023Z,9.40
2023-02-03T06:57:08.894Z,8.90
2023-02-03T07:02:12.182Z,10.40
2023-02-03T07:07:15.145Z,13.20
2023-02-03T07:12:17.907Z,10.30
2023-02-03T07:17:20.650Z,11.70
2023-02-03T07:22:23.546Z,10.40
2023-02-03T07:27:28.184Z,10.00
2023-02-03T07:32:32.287Z,15.70
2023-02-03T07:37:36.036Z,12.60
2023-02-03T07:42:42.700Z,12.20
2023-02-03T07:47:45.523Z,13.20
2023-02-03T07:52:50.803Z,11.40
2023-02-03T07:57:54.694Z,11.90
2023-02-03T08:02:57.527Z,18.10
2023-02-03T08:08:00.449Z,13.70
2023-02-03T08:13:03.326Z,14.10
2023-02-03T08:18:06.643Z,11.80
2023-02-03T08:28:12.207Z,15.00
2023-02-03T08:38:35.302Z,13.60
2023-02-03T08:43:38.776Z,13.10
2023-02-03T08:48:41.683Z,14.40
2023-02-03T08:53:44.589Z,11.50
2023-02-03T08:58:47.483Z,12.00
2023-02-03T09:03:50.392Z,11.70
2023-02-03T09:08:53.298Z,12.30
2023-02-03T09:19:01.043Z,9.90
2023-02-03T09:24:04.580Z,10.10
2023-02-03T09:29:08.080Z,11.20
2023-02-03T09:34:12.944Z,12.10
2023-02-03T09:39:16.134Z,12.70
2023-02-03T09:44:37.579Z,11.80
2023-02-03T09:49:50.517Z,11.20
2023-02-03T09:54:56.605Z,12.50
2023-02-03T10:00:02.889Z,16.30
2023-02-03T10:05:17.247Z,16.30
2023-02-03T10:10:39.198Z,17.50
2023-02-03T10:16:15.482Z,17.90
2023-02-03T10:21:42.567Z,17.40
2023-02-03T10:26:45.967Z,18.90
2023-02-03T10:36:58.687Z,17.60
2023-02-03T10:42:04.853Z,17.70
2023-02-03T10:47:26.054Z,18.50
2023-02-03T10:52:34.584Z,15.00
2023-02-03T10:57:39.936Z,20.20
2023-02-03T11:02:42.889Z,17.90
2023-02-03T11:07:46.366Z,16.90
2023-02-03T11:12:49.167Z,16.30
2023-02-03T11:17:52.070Z,16.90
2023-02-03T11:22:55.412Z,16.90
2023-02-03T11:28:06.970Z,15.60
2023-02-03T11:33:19.828Z,17.20
2023-02-03T11:38:31.675Z,17.10
2023-02-03T11:43:34.645Z,17.30
2023-02-03T11:48:43.795Z,15.00
2023-02-03T11:54:00.624Z,20.30
2023-02-03T11:59:45.307Z,21.20
2023-02-03T12:05:18.429Z,21.10
2023-02-03T12:10:36.275Z,18.60
2023-02-03T12:15:50.273Z,15.10
2023-02-03T12:21:05.225Z,16.60
2023-02-03T12:26:16.829Z,18.20
2023-02-03T12:31:35.907Z,16.70
2023-02-03T12:36:45.913Z,14.80
2023-02-03T12:42:07.695Z,16.30
2023-02-03T12:47:30.806Z,14.70
2023-02-03T12:52:50.861Z,14.50
2023-02-03T12:58:25.589Z,13.90
2023-02-03T13:03:40.756Z,15.10
2023-02-03T13:08:53.588Z,12.30
2023-02-03T13:14:06.118Z,11.10
2023-02-03T13:19:18.853Z,12.50
2023-02-03T13:24:25.565Z,12.50
2023-02-03T13:30:06.028Z,12.10
2023-02-03T13:35:34.305Z,13.70
2023-02-03T13:40:37.752Z,13.30
2023-02-03T13:45:45.326Z,9.50
2023-02-03T13:50:51.239Z,14.60
2023-02-03T13:56:00.722Z,15.90
2023-02-03T14:01:34.002Z,13.90
2023-02-03T14:06:39.888Z,13.30
2023-02-03T14:11:45.417Z,13.50
2023-02-03T14:16:52.686Z,13.40
2023-02-03T14:22:17.639Z,13.30
2023-02-03T14:27:25.293Z,9.20
2023-02-03T14:32:52.255Z,6.70
2023-02-03T14:38:02.425Z,10.60
2023-02-03T14:43:12.269Z,8.20
2023-02-03T14:48:37.214Z,7.00
2023-02-03T14:54:03.983Z,7.60
2023-02-03T14:59:10.371Z,8.80
2023-02-03T15:04:13.349Z,10.50
2023-02-03T15:09:36.985Z,9.80
2023-02-03T15:14:40.674Z,9.10
2023-02-03T15:19:43.583Z,6.40
2023-02-03T15:24:47.002Z,16.80
2023-02-03T15:29:50.012Z,7.40
2023-02-03T15:34:53.621Z,8.20
2023-02-03T15:40:03.064Z,9.70
2023-02-03T15:45:12.252Z,12.90
2023-02-03T15:50:21.442Z,10.80
2023-02-03T15:55:40.617Z,8.30
2023-02-03T16:00:48.177Z,7.80
2023-02-03T16:05:52.445Z,10.10
2023-02-03T16:10:55.740Z,11.20
2023-02-03T16:16:05.870Z,7.00
2023-02-03T16:21:30.584Z,8.10
2023-02-03T16:26:36.811Z,5.60
2023-02-03T16:32:04.950Z,7.30
2023-02-03T16:37:44.045Z,5.10
2023-02-03T16:43:08.141Z,6.90
2023-02-03T16:48:30.607Z,6.80
2023-02-03T16:53:33.615Z,5.70
2023-02-03T16:58:36.517Z,7.40
2023-02-03T17:03:39.715Z,6.20
2023-02-03T17:13:46.286Z,7.60
2023-02-03T17:18:49.774Z,6.20
2023-02-03T17:23:53.165Z,5.20
2023-02-03T17:28:56.083Z,8.20
2023-02-03T17:33:59.403Z,5.30
2023-02-03T17:55:05.611Z,7.10
2023-02-03T18:00:12.485Z,5.90
2023-02-03T18:05:15.370Z,7.90
2023-02-03T18:10:18.578Z,5.90
2023-02-03T18:20:24.380Z,5.40
2023-02-03T18:25:27.281Z,5.60
2023-02-03T18:30:30.342Z,5.90
2023-02-03T18:35:33.867Z,6.90
2023-02-03T18:45:41.054Z,6.30
2023-02-03T18:50:44.733Z,8.10
2023-02-03T18:55:47.578Z,12.00
2023-02-03T19:00:50.789Z,5.80
2023-02-03T19:10:57.201Z,7.60
2023-02-03T19:16:02.530Z,8.40
2023-02-03T19:21:06.108Z,7.90
2023-02-03T19:26:10.167Z,9.20
2023-02-03T19:31:15.601Z,8.50
2023-02-03T19:36:18.602Z,7.40
2023-02-03T19:41:22.816Z,7.80
2023-02-03T19:46:27.424Z,8.60
2023-02-03T19:51:30.382Z,9.40
2023-02-03T19:56:33.593Z,6.90
2023-02-03T20:06:39.818Z,7.50
2023-02-03T20:11:42.713Z,8.80
2023-02-03T20:16:49.609Z,9.60
2023-02-03T20:21:52.409Z,7.40
2023-02-03T20:26:55.320Z,11.20
2023-02-03T20:31:58.928Z,10.30
2023-02-03T20:37:01.843Z,9.40
2023-02-03T20:42:16.835Z,7.80
2023-02-03T20:47:21.467Z,10.10
2023-02-03T20:52:24.265Z,12.00
2023-02-03T20:57:27.276Z,10.90
2023-02-03T21:02:52.711Z,9.10
2023-02-03T21:07:55.720Z,13.70
2023-02-03T21:12:58.731Z,13.10
2023-02-03T21:18:01.747Z,9.80
2023-02-03T21:23:11.938Z,7.60
2023-02-03T21:28:33.044Z,10.30
2023-02-03T21:33:41.940Z,9.90
2023-02-03T21:38:48.775Z,8.80
2023-02-03T21:43:57.152Z,9.00
2023-02-03T21:49:01.267Z,7.90
2023-02-03T21:54:19.605Z,7.60
2023-02-03T21:59:26.270Z,8.50
2023-02-03T22:04:31.044Z,7.50
2023-02-03T22:09:33.944Z,6.80
2023-02-03T22:14:36.951Z,8.80
2023-02-03T22:19:39.758Z,8.60
2023-02-03T22:24:42.656Z,8.50
2023-02-03T22:29:46.070Z,7.60
2023-02-03T22:34:48.878Z,8.60
2023-02-03T22:39:51.673Z,9.50
2023-02-03T22:44:54.476Z,8.30
2023-02-03T22:49:57.372Z,9.30
2023-02-03T22:55:00.273Z,8.90
2023-02-03T23:00:03.930Z,9.10
2023-02-03T23:05:09.605Z,8.10
2023-02-03T23:10:23.695Z,9.80
2023-02-03T23:15:27.957Z,10.20
2023-02-03T23:20:31.139Z,7.00
2023-02-03T23:25:34.186Z,8.40
2023-02-03T23:30:37.311Z,8.90
2023-02-03T23:35:45.966Z,8.50
2023-02-03T23:40:48.880Z,10.70
2023-02-03T23:45:51.738Z,10.90
2023-02-03T23:50:54.641Z,7.90
2023-02-03T23:55:57.747Z,9.10
